createdAt,value
2022-12-31T00:04:56.195Z,9.35
2022-12-31T00:09:57.926Z,9.38
2022-12-31T00:15:01.039Z,9.40
2022-12-31T00:20:03.027Z,9.25
2022-12-31T00:25:05.987Z,10.05
2022-12-31T00:30:10.607Z,9.00
2022-12-31T00:35:12.315Z,9.43
2022-12-31T00:40:16.643Z,9.80
2022-12-31T00:45:19.749Z,9.70
2022-12-31T00:50:21.498Z,10.00
2022-12-31T00:55:23.183Z,9.93
2022-12-31T01:00:26.664Z,9.82
2022-12-31T01:05:30.140Z,9.30
2022-12-31T01:10:31.858Z,8.88
2022-12-31T01:15:36.619Z,8.85
2022-12-31T01:20:40.152Z,9.25
2022-12-31T01:25:41.932Z,9.00
2022-12-31T01:30:45.054Z,9.40
2022-12-31T01:35:46.914Z,9.23
2022-12-31T01:40:50.246Z,9.23
2022-12-31T01:45:54.322Z,9.65
2022-12-31T01:50:56.151Z,9.07
2022-12-31T01:55:59.545Z,9.98
2022-12-31T02:01:03.164Z,9.48
2022-12-31T02:06:10.292Z,9.65
2022-12-31T02:11:25.060Z,9.73
2022-12-31T02:16:35.103Z,9.00
2022-12-31T02:21:51.827Z,9.55
2022-12-31T02:27:01.776Z,9.68
2022-12-31T02:32:12.417Z,8.55
2022-12-31T02:37:15.956Z,9.15
2022-12-31T02:42:17.925Z,9.38
2022-12-31T02:47:34.397Z,9.77
2022-12-31T02:52:46.959Z,10.15
2022-12-31T02:57:53.210Z,9.40
2022-12-31T03:02:58.033Z,10.00
2022-12-31T03:07:59.806Z,9.93
2022-12-31T03:13:02.029Z,9.60
2022-12-31T03:18:07.267Z,9.82
2022-12-31T03:28:14.491Z,10.10
2022-12-31T03:33:18.129Z,9.55
2022-12-31T03:38:20.303Z,9.07
2022-12-31T03:43:22.482Z,9.80
2022-12-31T03:48:25.749Z,9.70
2022-12-31T03:53:28.037Z,9.40
2022-12-31T03:58:29.802Z,9.85
2022-12-31T04:03:32.929Z,9.98
2022-12-31T04:08:34.758Z,9.88
2022-12-31T04:13:36.482Z,9.45
2022-12-31T04:18:39.634Z,9.80
2022-12-31T04:23:41.446Z,10.13
2022-12-31T04:28:43.138Z,9.82
2022-12-31T04:33:46.201Z,9.98
2022-12-31T04:38:47.879Z,9.07
2022-12-31T04:43:51.424Z,10.20
2022-12-31T04:48:54.689Z,9.70
2022-12-31T04:53:56.861Z,9.32
2022-12-31T04:58:58.911Z,9.90
2022-12-31T05:04:02.024Z,10.15
2022-12-31T05:09:03.825Z,9.57
2022-12-31T05:14:05.572Z,9.52
2022-12-31T05:19:18.984Z,10.38
2022-12-31T05:24:20.774Z,10.00
2022-12-31T05:29:22.516Z,9.90
2022-12-31T05:34:29.101Z,10.00
2022-12-31T05:39:46.670Z,9.70
2022-12-31T05:44:48.622Z,9.40
2022-12-31T05:49:51.730Z,9.57
2022-12-31T05:54:57.470Z,9.80
2022-12-31T05:59:59.438Z,9.77
2022-12-31T06:05:06.398Z,10.40
2022-12-31T06:10:08.789Z,10.32
2022-12-31T06:15:10.879Z,10.43
2022-12-31T06:20:13.971Z,10.45
2022-12-31T06:25:27.521Z,9.68
2022-12-31T06:30:29.365Z,10.30
2022-12-31T06:35:32.514Z,9.63
2022-12-31T06:40:37.155Z,10.20
2022-12-31T06:45:38.895Z,11.02
2022-12-31T06:50:42.085Z,10.27
2022-12-31T06:55:44.336Z,10.05
2022-12-31T07:00:54.220Z,8.88
2022-12-31T07:06:02.063Z,9.55
2022-12-31T07:11:11.071Z,9.50
2022-12-31T07:16:37.036Z,9.80
2022-12-31T07:21:41.889Z,10.35
2022-12-31T07:26:57.146Z,10.57
2022-12-31T07:37:13.101Z,9.40
2022-12-31T07:42:18.915Z,9.75
2022-12-31T07:47:23.160Z,10.32
2022-12-31T07:52:27.037Z,10.18
2022-12-31T07:57:37.092Z,10.40
2022-12-31T08:03:03.715Z,10.60
2022-12-31T08:08:20.800Z,10.27
2022-12-31T08:13:22.821Z,10.63
2022-12-31T08:18:25.212Z,10.82
2022-12-31T08:23:35.791Z,10.27
2022-12-31T08:28:53.731Z,9.95
2022-12-31T08:34:05.539Z,10.50
2022-12-31T08:39:20.520Z,10.57
2022-12-31T08:44:32.457Z,10.13
2022-12-31T08:49:35.744Z,10.73
2022-12-31T08:54:39.616Z,9.93
2022-12-31T08:59:50.419Z,10.57
2022-12-31T09:05:05.058Z,10.32
2022-12-31T09:10:17.947Z,10.70
2022-12-31T09:15:27.438Z,11.00
2022-12-31T09:20:45.409Z,10.80
2022-12-31T09:25:57.370Z,10.70
2022-12-31T09:31:03.781Z,11.00
2022-12-31T09:36:07.919Z,10.98
2022-12-31T09:41:16.351Z,10.02
2022-12-31T09:46:43.285Z,11.27
2022-12-31T09:51:52.364Z,12.10
2022-12-31T09:57:12.778Z,11.90
2022-12-31T10:02:27.043Z,10.68
2022-12-31T10:07:43.946Z,11.23
2022-12-31T10:13:15.106Z,10.88
2022-12-31T10:18:26.605Z,10.90
2022-12-31T10:23:51.256Z,10.43
2022-12-31T10:29:09.037Z,11.30
2022-12-31T10:34:17.233Z,11.00
2022-12-31T10:39:31.153Z,10.52
2022-12-31T10:45:10.654Z,10.98
2022-12-31T10:50:37.888Z,10.38
2022-12-31T10:56:14.827Z,11.05
2022-12-31T11:01:22.325Z,11.93
2022-12-31T11:06:52.209Z,11.35
2022-12-31T11:12:04.784Z,11.15
2022-12-31T11:17:50.272Z,10.70
2022-12-31T11:23:01.122Z,10.73
2022-12-31T11:28:14.195Z,10.75
2022-12-31T11:33:27.034Z,11.02
2022-12-31T11:38:33.230Z,10.20
2022-12-31T11:43:39.301Z,10.90
2022-12-31T11:48:49.643Z,10.02
2022-12-31T11:54:33.780Z,11.12
2022-12-31T11:59:35.536Z,10.55
2022-12-31T12:04:38.785Z,10.40
2022-12-31T12:09:51.132Z,10.63
2022-12-31T12:14:55.032Z,9.63
2022-12-31T12:20:02.657Z,9.75
2022-12-31T12:30:53.659Z,10.60
2022-12-31T12:36:09.237Z,10.60
2022-12-31T12:47:14.674Z,10.48
2022-12-31T13:42:11.273Z,10.50
2022-12-31T13:47:21.856Z,9.73
2022-12-31T13:57:45.724Z,10.52
2022-12-31T14:02:56.550Z,10.55
2022-12-31T14:13:51.493Z,10.27
2022-12-31T14:19:16.265Z,10.32
2022-12-31T14:24:30.185Z,9.60
2022-12-31T14:29:48.853Z,10.68
2022-12-31T14:35:04.470Z,10.70
2022-12-31T14:40:21.985Z,10.43
2022-12-31T14:45:53.897Z,10.10
2022-12-31T14:51:02.758Z,10.05
2022-12-31T15:07:03.588Z,10.40
2022-12-31T15:12:18.956Z,10.35
2022-12-31T15:28:52.412Z,10.48
2022-12-31T15:45:37.390Z,11.15
2022-12-31T16:01:58.553Z,12.20
2022-12-31T16:07:02.336Z,11.20
2022-12-31T16:12:10.831Z,11.40
2022-12-31T16:17:34.733Z,11.27
2022-12-31T16:22:39.458Z,11.38
2022-12-31T16:27:46.703Z,12.13
2022-12-31T16:32:50.442Z,12.10
2022-12-31T16:38:03.405Z,11.88
2022-12-31T16:43:22.638Z,12.73
2022-12-31T16:48:25.918Z,12.15
2022-12-31T16:53:28.157Z,11.73
2022-12-31T16:58:33.266Z,11.12
2022-12-31T17:03:44.266Z,11.15
2022-12-31T17:08:49.300Z,11.98
2022-12-31T17:13:58.508Z,12.25
2022-12-31T17:19:00.268Z,11.68
2022-12-31T17:24:05.918Z,12.15
2022-12-31T17:29:26.079Z,12.73
2022-12-31T17:34:33.493Z,10.75
2022-12-31T17:39:54.370Z,11.12
2022-12-31T17:45:00.794Z,11.85
2022-12-31T17:50:20.221Z,13.07
2022-12-31T17:55:22.072Z,14.18
2022-12-31T18:00:27.082Z,12.43
2022-12-31T18:05:28.896Z,12.10
2022-12-31T18:10:35.067Z,15.02
2022-12-31T18:15:54.445Z,44.00
2022-12-31T18:20:58.611Z,13.25
2022-12-31T18:26:00.422Z,11.93
2022-12-31T18:31:04.286Z,13.00
2022-12-31T18:36:12.110Z,13.38
2022-12-31T18:46:38.607Z,12.37
2022-12-31T18:51:43.159Z,13.95
2022-12-31T18:56:48.357Z,12.70
2022-12-31T19:01:53.617Z,12.37
2022-12-31T19:06:56.140Z,12.27
2022-12-31T19:11:58.255Z,12.73
2022-12-31T19:22:02.348Z,11.63
2022-12-31T19:27:07.206Z,11.90
2022-12-31T19:32:10.521Z,12.10
2022-12-31T19:37:14.776Z,12.85
2022-12-31T19:42:16.759Z,14.32
2022-12-31T19:47:46.369Z,12.63
2022-12-31T19:52:50.517Z,13.13
2022-12-31T19:57:52.591Z,13.13
2022-12-31T20:03:00.794Z,13.18
2022-12-31T20:08:02.858Z,12.73
2022-12-31T20:13:04.790Z,13.62
2022-12-31T20:18:08.035Z,13.52
2022-12-31T20:23:09.787Z,14.07
2022-12-31T20:28:11.546Z,16.65
2022-12-31T20:33:19.037Z,13.75
2022-12-31T20:38:21.163Z,13.10
2022-12-31T20:43:22.880Z,13.43
2022-12-31T20:48:26.041Z,12.68
2022-12-31T20:53:27.889Z,13.82
2022-12-31T20:58:29.625Z,13.90
2022-12-31T21:04:04.201Z,14.25
2022-12-31T21:08:57.624Z,14.00
2022-12-31T21:14:00.584Z,14.45
2022-12-31T21:19:03.882Z,14.63
2022-12-31T21:24:06.279Z,15.75
2022-12-31T21:29:07.961Z,17.52
2022-12-31T21:34:14.072Z,14.75
2022-12-31T21:39:15.892Z,14.68
2022-12-31T21:44:18.135Z,13.55
2022-12-31T21:49:21.298Z,13.25
2022-12-31T21:54:22.953Z,13.02
2022-12-31T21:59:24.680Z,15.40
2022-12-31T22:05:01.750Z,14.50
2022-12-31T22:09:50.090Z,14.60
2022-12-31T22:15:14.245Z,12.85
2022-12-31T22:20:27.100Z,13.32
2022-12-31T22:25:29.829Z,16.50
2022-12-31T22:30:32.066Z,15.05
2022-12-31T22:35:35.276Z,14.95
2022-12-31T22:40:37.129Z,14.63
2022-12-31T22:45:38.924Z,13.62
2022-12-31T22:50:42.013Z,29.50
2022-12-31T22:55:46.053Z,24.55
2022-12-31T23:00:48.474Z,50.83
2022-12-31T23:05:52.898Z,237.10
2022-12-31T23:10:57.830Z,303.47
2022-12-31T23:15:59.872Z,248.27
2022-12-31T23:21:09.571Z,183.40
2022-12-31T23:26:11.368Z,158.52
2022-12-31T23:31:13.252Z,124.60
2022-12-31T23:36:16.495Z,130.40
2022-12-31T23:41:20.268Z,101.85
2022-12-31T23:46:22.103Z,86.53
2022-12-31T23:51:35.635Z,79.22
2022-12-31T23:56:39.503Z,53.20
